Aksa, Russia
Current Conditions -  °F | °C
As of 9:30 PM on Friday 19 Dec 2014 (Local Time) from UIAA Reporting Station
Few Clouds Few Clouds  
Wind Chill: -18°   Ceiling: Unl
Heat Index: -18°   Visibility: 6mi
Dew Point: -20°   Wind: 2mph
Humidity: 85%   Direction: NA
Pressure: 30.12"   Gusts: NA
Location:  50.27°N, 113.27°E
Report Text: UIAA 191230Z VRB01MPS 9999 FEW100 M18/M20 Q1020 NOSIG RMKQFE706 29CLRD70
Loading
Personal Weather Stations






























Interactive Weather Map New forecast layout! Learn more

10-Day Weather Forecast

Advertisements
Track Severe Weather on mobile